ジッダ の空港の天気 - METARとTAF

キング・アブドゥルアズィーズ国際空港(ジッダ) ( OEJN / JED ) - サウジアラビア ジッダ
飛行場実況気象(Metar)
観測時間10/22 14:00 AST (10/22 11:00 UTC)
風向・風速西南西 6m/s
視程10km以上
天気現象
なし
気温38℃
湿度16%
気圧1009hPa
METAROEJN 221100Z 24012KT CAVOK 38/08 Q1009 NOSIG
過去の天気等 Google飛行場航空写真 Wunderground天気予報

過去48時間のMETAR

飛行場予報(TAF)
発表時間: 10/22 14:00 AST (10/22 11:00 UTC)
予報対象時間: 22日15時 AST ~ 23日21時 AST
風向・風速西 7m/s
視程10km以上
なし
22日21時 AST ~ 22日23時 AST に徐々に
風向・風速北 5m/s
23日3時 AST ~ 23日5時 AST に徐々に
風向・風速東 3m/s 瞬間風速 8m/s
23日3時 AST ~ 23日13時 AST に一時的に
視程3500m
天気現象風塵 高い風塵
TAF OEJN 221100Z 2212/2318 26014KT CAVOK
BECMG 2218/2220 35010KT
BECMG 2300/2302 09006G16KT
TEMPO 2300/2310 3500 DU BLDU